createdAt,value
2023-03-29T00:01:35.133Z,99588.46
2023-03-29T00:04:27.725Z,99589.16
2023-03-29T00:07:16.448Z,99589.89
2023-03-29T00:10:05.879Z,99594.94
2023-03-29T00:12:54.923Z,99593.97
2023-03-29T00:15:43.886Z,99591.89
2023-03-29T00:18:32.552Z,99590.58
2023-03-29T00:21:21.235Z,99588.05
2023-03-29T00:24:10.084Z,99588.52
2023-03-29T00:26:59.783Z,99584.73
2023-03-29T00:29:48.554Z,99589.80
2023-03-29T00:32:38.678Z,99591.09
2023-03-29T00:35:27.909Z,99586.02
2023-03-29T00:38:17.096Z,99585.16
2023-03-29T00:41:07.890Z,99579.03
2023-03-29T00:44:00.366Z,99578.16
2023-03-29T00:46:49.598Z,99575.73
2023-03-29T00:49:38.235Z,99577.29
2023-03-29T00:52:30.976Z,99575.98
2023-03-29T00:55:23.030Z,99573.95
2023-03-29T00:58:18.124Z,99572.44
2023-03-29T01:06:06.784Z,99569.51
2023-03-29T01:09:03.563Z,99566.02
2023-03-29T01:11:57.037Z,99565.67
2023-03-29T01:14:53.677Z,99568.45
2023-03-29T01:17:50.487Z,99565.21
2023-03-29T01:21:05.104Z,99561.87
2023-03-29T01:24:15.447Z,99557.67
2023-03-29T01:27:45.715Z,99556.98
2023-03-29T01:30:43.807Z,99555.24
2023-03-29T01:33:38.002Z,99554.92
2023-03-29T01:36:37.223Z,99547.36
2023-03-29T01:39:26.731Z,99549.31
2023-03-29T01:42:31.815Z,99548.45
2023-03-29T01:45:31.699Z,99546.85
2023-03-29T01:48:28.753Z,99543.20
2023-03-29T01:51:34.031Z,99543.60
2023-03-29T01:54:30.861Z,99540.08
2023-03-29T01:57:20.117Z,99540.91
2023-03-29T02:00:14.490Z,99542.34
2023-03-29T02:03:08.337Z,99541.16
2023-03-29T02:05:59.280Z,99544.48
2023-03-29T02:08:51.238Z,99545.58
2023-03-29T02:11:42.707Z,99548.19
2023-03-29T02:14:31.510Z,99548.25
2023-03-29T02:17:24.663Z,99548.34
2023-03-29T02:20:17.378Z,99552.29
2023-03-29T02:23:24.071Z,99553.36
2023-03-29T02:26:14.526Z,99550.64
2023-03-29T02:29:03.602Z,99546.35
2023-03-29T02:32:24.164Z,99546.90
2023-03-29T02:35:22.357Z,99544.20
2023-03-29T02:38:11.612Z,99535.93
2023-03-29T02:41:01.757Z,99536.25
2023-03-29T02:43:51.531Z,99533.38
2023-03-29T02:46:43.089Z,99533.16
2023-03-29T02:49:32.495Z,99531.96
2023-03-29T02:52:28.572Z,99534.31
2023-03-29T02:55:18.865Z,99534.48
2023-03-29T02:58:08.593Z,99535.27
2023-03-29T03:01:01.634Z,99544.00
2023-03-29T03:03:51.111Z,99542.80
2023-03-29T03:06:40.838Z,99541.42
2023-03-29T03:09:32.105Z,99545.17
2023-03-29T03:12:20.886Z,99541.52
2023-03-29T03:15:10.760Z,99544.46
2023-03-29T03:18:03.291Z,99546.02
2023-03-29T03:20:57.183Z,99544.39
2023-03-29T03:23:47.316Z,99553.86
2023-03-29T03:26:36.182Z,99553.39
2023-03-29T03:29:26.467Z,99550.30
2023-03-29T03:32:35.326Z,99548.88
2023-03-29T03:36:06.422Z,99550.75
2023-03-29T03:38:57.220Z,99549.89
2023-03-29T03:41:46.461Z,99549.48
2023-03-29T03:44:35.310Z,99551.49
2023-03-29T03:47:44.302Z,99555.55
2023-03-29T03:50:55.111Z,99559.23
2023-03-29T03:53:44.260Z,99559.05
2023-03-29T03:56:35.822Z,99561.68
2023-03-29T03:59:51.292Z,99560.96
2023-03-29T04:02:48.431Z,99563.27
2023-03-29T04:05:41.499Z,99562.73
2023-03-29T04:08:30.749Z,99564.78
2023-03-29T04:11:36.860Z,99566.39
2023-03-29T04:14:27.155Z,99567.45
2023-03-29T04:17:28.246Z,99567.36
2023-03-29T04:20:21.999Z,99567.05
2023-03-29T04:23:10.781Z,99567.52
2023-03-29T04:26:00.440Z,99571.28
2023-03-29T04:29:13.775Z,99571.83
2023-03-29T04:32:07.776Z,99570.94
2023-03-29T04:35:06.853Z,99568.16
2023-03-29T04:37:55.935Z,99570.33
2023-03-29T04:40:45.719Z,99571.09
2023-03-29T04:43:57.468Z,99570.90
2023-03-29T04:46:47.729Z,99574.39
2023-03-29T04:49:40.252Z,99574.81
2023-03-29T04:52:35.550Z,99576.13
2023-03-29T04:55:25.030Z,99577.16
2023-03-29T04:58:24.419Z,99573.14
2023-03-29T05:01:15.316Z,99572.02
2023-03-29T05:04:12.490Z,99571.47
2023-03-29T05:18:04.198Z,99570.66
2023-03-29T05:20:54.202Z,99573.60
2023-03-29T05:23:43.454Z,99571.65
2023-03-29T05:26:38.543Z,99568.58
2023-03-29T05:29:27.602Z,99564.41
2023-03-29T05:32:28.253Z,99567.65
2023-03-29T05:35:17.328Z,99568.77
2023-03-29T05:38:06.485Z,99569.21
2023-03-29T05:40:56.863Z,99571.38
2023-03-29T05:43:54.110Z,99572.23
2023-03-29T05:46:45.380Z,99571.07
2023-03-29T05:49:38.143Z,99569.93
2023-03-29T05:52:43.904Z,99573.08
2023-03-29T05:55:33.807Z,99572.96
2023-03-29T05:58:23.091Z,99573.23
2023-03-29T06:01:19.160Z,99570.22
2023-03-29T06:04:18.321Z,99563.92
2023-03-29T06:07:14.840Z,99562.80
2023-03-29T06:10:05.817Z,99562.20
2023-03-29T06:12:55.646Z,99567.30
2023-03-29T06:15:46.212Z,99562.71
2023-03-29T06:18:43.688Z,99565.00
2023-03-29T06:21:49.621Z,99566.41
2023-03-29T06:24:54.997Z,99563.44
2023-03-29T06:27:55.159Z,99567.52
2023-03-29T06:30:46.043Z,99566.27
2023-03-29T06:33:37.494Z,99563.63
2023-03-29T06:36:35.776Z,99566.59
2023-03-29T06:39:26.794Z,99567.66
2023-03-29T06:42:48.681Z,99568.35
2023-03-29T06:45:56.494Z,99568.42
2023-03-29T06:48:55.311Z,99569.55
2023-03-29T06:51:44.765Z,99569.22
2023-03-29T06:54:33.956Z,99572.35
2023-03-29T06:57:25.612Z,99568.11
2023-03-29T07:00:18.378Z,99564.13
2023-03-29T07:03:35.520Z,99569.55
2023-03-29T07:06:24.391Z,99570.20
2023-03-29T07:18:10.790Z,99562.56
2023-03-29T07:21:00.590Z,99564.48
2023-03-29T07:23:50.173Z,99564.19
2023-03-29T07:26:46.325Z,99567.73
2023-03-29T07:29:41.976Z,99569.19
2023-03-29T07:32:31.831Z,99567.72
2023-03-29T07:35:48.081Z,99558.94
2023-03-29T07:38:38.157Z,99556.39
2023-03-29T07:41:32.285Z,99556.57
2023-03-29T07:44:29.529Z,99549.92
2023-03-29T07:47:19.210Z,99547.03
2023-03-29T07:50:09.749Z,99550.45
2023-03-29T07:52:58.494Z,99553.23
2023-03-29T07:55:49.183Z,99546.94
2023-03-29T07:58:58.437Z,99549.23
2023-03-29T08:01:47.355Z,99546.92
2023-03-29T08:04:57.298Z,99546.55
2023-03-29T08:07:52.039Z,99548.98
2023-03-29T08:10:57.726Z,99547.77
2023-03-29T08:14:02.883Z,99540.33
2023-03-29T08:17:14.175Z,99544.13
2023-03-29T08:20:09.918Z,99544.23
2023-03-29T08:23:00.343Z,99540.38
2023-03-29T08:26:13.892Z,99539.21
2023-03-29T08:29:02.568Z,99536.27
2023-03-29T08:31:51.803Z,99532.52
2023-03-29T08:34:40.642Z,99534.19
2023-03-29T08:37:43.316Z,99530.73
2023-03-29T08:40:33.026Z,99524.85
2023-03-29T08:43:24.516Z,99521.94
2023-03-29T08:47:13.883Z,99517.16
2023-03-29T08:50:06.655Z,99515.79
2023-03-29T08:53:08.510Z,99517.69
2023-03-29T08:56:23.129Z,99522.86
2023-03-29T08:59:33.315Z,99524.10
2023-03-29T09:02:27.853Z,99522.21
2023-03-29T09:05:27.675Z,99518.15
2023-03-29T09:08:43.960Z,99517.83
2023-03-29T09:11:57.652Z,99511.80
2023-03-29T09:14:49.730Z,99509.30
2023-03-29T09:17:41.056Z,99506.38
2023-03-29T09:20:41.252Z,99500.52
2023-03-29T09:23:44.541Z,99502.66
2023-03-29T09:26:47.774Z,99500.75
2023-03-29T09:30:04.805Z,99497.60
2023-03-29T09:33:42.856Z,99492.83
2023-03-29T09:36:54.413Z,99493.98
2023-03-29T09:39:43.846Z,99488.93
2023-03-29T09:42:35.012Z,99479.38
2023-03-29T09:45:24.977Z,99482.62
2023-03-29T09:48:16.343Z,99483.36
2023-03-29T09:51:10.727Z,99483.18
2023-03-29T09:54:01.142Z,99481.34
2023-03-29T09:57:17.902Z,99483.27
2023-03-29T10:00:10.832Z,99481.88
2023-03-29T10:03:02.917Z,99481.29
2023-03-29T10:06:02.870Z,99475.10
2023-03-29T10:08:58.973Z,99481.00
2023-03-29T10:12:07.160Z,99477.69
2023-03-29T10:14:55.954Z,99472.41
2023-03-29T10:17:46.398Z,99466.84
2023-03-29T10:20:36.548Z,99465.80
2023-03-29T10:23:34.570Z,99461.58
2023-03-29T10:26:32.067Z,99454.20
2023-03-29T10:29:23.018Z,99459.64
2023-03-29T10:32:15.761Z,99461.48
2023-03-29T10:35:22.953Z,99462.70
2023-03-29T10:38:15.047Z,99464.34
2023-03-29T10:41:09.137Z,99458.95
2023-03-29T10:44:03.720Z,99453.70
2023-03-29T10:46:52.605Z,99446.08
2023-03-29T10:49:44.082Z,99447.98
2023-03-29T10:52:33.309Z,99445.80
2023-03-29T10:55:24.364Z,99440.52
2023-03-29T10:58:23.554Z,99434.74
2023-03-29T11:01:22.160Z,99436.38
2023-03-29T11:04:45.332Z,99436.40
2023-03-29T11:08:01.188Z,99435.90
2023-03-29T11:11:15.934Z,99429.24
2023-03-29T11:14:22.993Z,99427.17
2023-03-29T11:17:20.748Z,99418.48
2023-03-29T11:20:20.177Z,99417.02
2023-03-29T11:23:38.439Z,99411.71
2023-03-29T11:26:36.087Z,99407.88
2023-03-29T11:29:31.198Z,99404.64
2023-03-29T11:32:51.992Z,99400.74
2023-03-29T11:35:54.351Z,99401.75
2023-03-29T11:38:55.839Z,99398.35
2023-03-29T11:41:49.914Z,99397.02
2023-03-29T11:44:41.663Z,99392.79
2023-03-29T11:47:33.474Z,99388.02
2023-03-29T11:50:27.542Z,99387.58
2023-03-29T11:53:24.894Z,99384.78
2023-03-29T11:56:19.710Z,99376.77
2023-03-29T11:59:25.892Z,99373.42
2023-03-29T12:02:29.570Z,99368.23
2023-03-29T12:05:31.184Z,99359.55
2023-03-29T12:08:22.261Z,99351.73
2023-03-29T12:11:27.669Z,99350.20
2023-03-29T12:14:26.065Z,99352.67
2023-03-29T12:17:44.096Z,99352.67
2023-03-29T12:20:38.722Z,99342.98
2023-03-29T12:23:32.399Z,99338.15
2023-03-29T12:27:03.053Z,99343.09
2023-03-29T12:30:21.246Z,99332.20
2023-03-29T12:33:24.853Z,99330.30
2023-03-29T12:36:56.652Z,99324.75
2023-03-29T12:40:12.415Z,99324.58
2023-03-29T12:43:41.826Z,99312.27
2023-03-29T12:47:00.545Z,99308.42
2023-03-29T12:49:53.084Z,99311.16
2023-03-29T12:52:42.063Z,99307.54
2023-03-29T12:55:43.731Z,99304.72
2023-03-29T12:58:54.298Z,99306.16
2023-03-29T13:02:00.254Z,99301.54
2023-03-29T13:04:53.164Z,99299.90
2023-03-29T13:07:50.229Z,99287.98
2023-03-29T13:10:42.546Z,99284.80
2023-03-29T13:13:37.065Z,99281.58
2023-03-29T13:16:32.976Z,99285.59
2023-03-29T13:19:46.876Z,99282.04
2023-03-29T13:22:41.749Z,99277.77
2023-03-29T13:25:55.944Z,99276.77
2023-03-29T13:29:03.401Z,99269.71
2023-03-29T13:32:03.850Z,99266.53
2023-03-29T13:35:15.665Z,99265.84
2023-03-29T13:38:31.872Z,99266.11
2023-03-29T13:41:32.521Z,99265.38
2023-03-29T13:44:39.335Z,99262.57
2023-03-29T13:47:38.463Z,99260.71
2023-03-29T13:50:52.504Z,99257.47
2023-03-29T13:54:08.079Z,99254.23
2023-03-29T13:57:02.988Z,99255.48
2023-03-29T14:00:11.985Z,99258.35
2023-03-29T14:03:07.823Z,99252.52
2023-03-29T14:06:01.510Z,99248.83
2023-03-29T14:09:14.705Z,99247.73
2023-03-29T14:12:03.489Z,99250.23
2023-03-29T14:14:58.712Z,99250.70
2023-03-29T14:17:48.704Z,99252.42
2023-03-29T14:20:37.589Z,99253.87
2023-03-29T14:23:33.246Z,99250.39
2023-03-29T14:26:25.359Z,99246.36
2023-03-29T14:29:14.187Z,99246.21
2023-03-29T14:32:16.911Z,99243.94
2023-03-29T14:35:06.178Z,99241.55
2023-03-29T14:37:55.570Z,99241.44
2023-03-29T14:40:45.678Z,99239.23
2023-03-29T14:43:34.561Z,99239.32
2023-03-29T14:46:23.533Z,99235.83
2023-03-29T14:49:17.267Z,99238.86
2023-03-29T14:52:06.365Z,99235.08
2023-03-29T14:54:57.762Z,99235.57
2023-03-29T14:57:47.644Z,99227.48
2023-03-29T15:00:44.320Z,99223.66
2023-03-29T15:03:49.178Z,99221.96
2023-03-29T15:06:44.318Z,99221.41
2023-03-29T15:09:34.677Z,99221.92
2023-03-29T15:12:29.241Z,99219.92
2023-03-29T15:15:18.068Z,99222.00
2023-03-29T15:18:10.028Z,99225.05
2023-03-29T15:20:59.687Z,99221.89
2023-03-29T15:23:52.841Z,99218.45
2023-03-29T15:26:41.963Z,99212.98
2023-03-29T15:29:42.667Z,99212.48
2023-03-29T15:32:34.327Z,99212.34
2023-03-29T15:35:25.508Z,99209.86
2023-03-29T15:38:14.202Z,99209.56
2023-03-29T15:41:12.994Z,99208.82
2023-03-29T15:44:01.625Z,99206.14
2023-03-29T15:46:51.215Z,99207.88
2023-03-29T15:49:40.100Z,99208.27
2023-03-29T15:52:29.168Z,99204.09
2023-03-29T15:55:18.504Z,99200.21
2023-03-29T15:58:07.551Z,99193.75
2023-03-29T16:01:23.822Z,99189.46
2023-03-29T16:04:18.458Z,99186.88
2023-03-29T16:07:13.463Z,99181.91
2023-03-29T16:10:02.230Z,99179.06
2023-03-29T16:12:50.763Z,99180.55
2023-03-29T16:15:41.302Z,99176.02
2023-03-29T16:18:30.017Z,99173.15
2023-03-29T16:21:22.302Z,99173.17
2023-03-29T16:24:19.602Z,99170.84
2023-03-29T16:27:08.808Z,99169.23
2023-03-29T16:29:58.847Z,99166.11
2023-03-29T16:32:47.711Z,99163.85
2023-03-29T16:35:38.546Z,99160.55
2023-03-29T16:38:29.496Z,99155.87
2023-03-29T16:41:22.228Z,99150.23
2023-03-29T16:44:23.231Z,99146.04
2023-03-29T16:47:12.598Z,99146.02
2023-03-29T16:50:01.358Z,99145.87
2023-03-29T16:52:52.641Z,99143.17
2023-03-29T16:55:42.773Z,99145.19
2023-03-29T16:58:31.423Z,99141.11
2023-03-29T17:01:20.730Z,99144.95
2023-03-29T17:04:09.379Z,99144.98
2023-03-29T17:06:58.501Z,99147.27
2023-03-29T17:19:06.166Z,99156.91
2023-03-29T17:21:55.007Z,99157.75
2023-03-29T17:25:00.712Z,99158.95
2023-03-29T17:27:50.120Z,99158.75
2023-03-29T17:30:39.085Z,99163.57
2023-03-29T17:33:28.055Z,99162.89
2023-03-29T17:36:17.929Z,99160.65
2023-03-29T17:39:09.540Z,99157.56
2023-03-29T17:41:58.544Z,99159.71
2023-03-29T17:44:47.330Z,99167.80
2023-03-29T17:47:37.352Z,99169.42
2023-03-29T17:50:26.420Z,99161.79
2023-03-29T17:53:15.480Z,99155.66
2023-03-29T17:56:04.795Z,99155.42
2023-03-29T17:58:54.309Z,99160.09
2023-03-29T18:01:43.739Z,99160.80
2023-03-29T18:04:33.725Z,99164.11
2023-03-29T18:07:22.826Z,99163.19
2023-03-29T18:10:11.808Z,99161.52
2023-03-29T18:13:00.888Z,99160.29
2023-03-29T18:15:54.920Z,99163.16
2023-03-29T18:18:46.318Z,99160.08
2023-03-29T18:21:35.576Z,99165.09
2023-03-29T18:24:24.256Z,99164.70
2023-03-29T18:27:13.306Z,99174.54
2023-03-29T18:30:02.537Z,99169.56
2023-03-29T18:32:51.544Z,99171.51
2023-03-29T18:35:40.656Z,99170.70
2023-03-29T18:38:29.540Z,99171.48
2023-03-29T18:41:18.150Z,99176.41
2023-03-29T18:44:07.906Z,99174.14
2023-03-29T18:46:56.694Z,99169.58
2023-03-29T18:49:45.690Z,99162.89
2023-03-29T18:52:34.291Z,99161.36
2023-03-29T18:55:23.307Z,99153.30
2023-03-29T18:58:13.692Z,99150.31
2023-03-29T19:01:04.785Z,99150.96
2023-03-29T19:03:54.172Z,99154.30
2023-03-29T19:06:43.082Z,99159.44
2023-03-29T19:09:31.934Z,99162.22
2023-03-29T19:12:20.615Z,99156.96
2023-03-29T19:15:10.168Z,99161.02
2023-03-29T19:17:59.000Z,99153.42
2023-03-29T19:20:50.912Z,99152.81
2023-03-29T19:23:39.792Z,99150.77
2023-03-29T19:26:29.512Z,99150.66
2023-03-29T19:29:18.214Z,99146.95
2023-03-29T19:32:06.961Z,99141.43
2023-03-29T19:34:56.152Z,99143.38
2023-03-29T19:37:44.836Z,99140.85
2023-03-29T19:40:33.814Z,99135.98
2023-03-29T19:43:22.676Z,99131.57
2023-03-29T19:46:13.048Z,99134.44
2023-03-29T19:49:04.456Z,99126.87
2023-03-29T19:51:55.825Z,99124.96
2023-03-29T19:54:44.485Z,99120.66
2023-03-29T19:57:33.946Z,99122.16
2023-03-29T20:00:25.247Z,99123.46
2023-03-29T20:03:14.192Z,99124.23
2023-03-29T20:06:03.571Z,99124.27
2023-03-29T20:08:54.282Z,99126.04
2023-03-29T20:11:49.405Z,99125.56
2023-03-29T20:14:40.404Z,99123.55
2023-03-29T20:17:29.073Z,99118.05
2023-03-29T20:20:17.760Z,99117.61
2023-03-29T20:23:06.462Z,99111.61
2023-03-29T20:25:55.115Z,99109.51
2023-03-29T20:28:43.777Z,99104.89
2023-03-29T20:31:33.007Z,99106.86
2023-03-29T20:34:22.389Z,99107.44
2023-03-29T20:37:12.914Z,99105.64
2023-03-29T20:40:01.552Z,99100.02
2023-03-29T20:42:50.424Z,99101.44
2023-03-29T20:45:51.525Z,99098.91
2023-03-29T20:48:53.541Z,99098.13
2023-03-29T20:51:43.045Z,99099.02
2023-03-29T20:54:33.459Z,99097.82
2023-03-29T20:57:22.794Z,99095.02
2023-03-29T21:00:12.115Z,99096.44
2023-03-29T21:03:04.110Z,99090.68
2023-03-29T21:05:55.931Z,99085.17
2023-03-29T21:08:46.122Z,99076.73
2023-03-29T21:11:35.537Z,99073.14
2023-03-29T21:14:25.477Z,99067.55
2023-03-29T21:17:14.298Z,99067.33
2023-03-29T21:20:08.089Z,99066.70
2023-03-29T21:22:56.755Z,99055.02
2023-03-29T21:25:45.812Z,99046.38
2023-03-29T21:28:34.963Z,99042.18
2023-03-29T21:31:24.220Z,99039.41
2023-03-29T21:34:13.036Z,99033.75
2023-03-29T21:37:02.130Z,99039.89
2023-03-29T21:39:50.978Z,99050.09
2023-03-29T21:42:39.924Z,99049.05
2023-03-29T21:45:28.639Z,99052.25
2023-03-29T21:48:18.070Z,99054.48
2023-03-29T21:51:07.127Z,99054.11
2023-03-29T21:53:56.138Z,99057.92
2023-03-29T21:56:45.949Z,99061.81
2023-03-29T21:59:34.981Z,99062.14
2023-03-29T22:02:24.078Z,99057.20
2023-03-29T22:05:13.095Z,99059.10
2023-03-29T22:08:02.047Z,99058.90
2023-03-29T22:10:55.553Z,99060.42
2023-03-29T22:13:45.184Z,99061.77
2023-03-29T22:16:37.295Z,99061.53
2023-03-29T22:19:26.232Z,99058.66
2023-03-29T22:22:15.183Z,99058.86
2023-03-29T22:25:04.280Z,99054.17
2023-03-29T22:27:52.970Z,99051.52
2023-03-29T22:30:41.946Z,99044.73
2023-03-29T22:33:33.091Z,99039.48
2023-03-29T22:36:30.612Z,99037.84
2023-03-29T22:39:19.841Z,99035.30
2023-03-29T22:42:08.549Z,99027.98
2023-03-29T22:44:57.295Z,99025.28
2023-03-29T22:47:46.055Z,99023.59
2023-03-29T22:50:34.906Z,99019.27
2023-03-29T22:53:27.258Z,99018.33
2023-03-29T22:56:18.057Z,99015.65
2023-03-29T22:59:06.941Z,99016.16
2023-03-29T23:01:55.807Z,99015.30
2023-03-29T23:04:45.567Z,99008.02
2023-03-29T23:07:36.737Z,99005.33
2023-03-29T23:10:30.433Z,99006.21
2023-03-29T23:13:25.852Z,99007.60
2023-03-29T23:16:15.528Z,99011.16
2023-03-29T23:19:05.163Z,99009.34
2023-03-29T23:21:55.135Z,99006.03
2023-03-29T23:24:47.515Z,99003.47
2023-03-29T23:27:36.271Z,99001.02
2023-03-29T23:30:25.131Z,98997.65
2023-03-29T23:33:14.488Z,98997.34
2023-03-29T23:36:05.805Z,98993.56
2023-03-29T23:38:54.572Z,98992.29
2023-03-29T23:41:43.674Z,98987.34
2023-03-29T23:44:32.611Z,98988.50
2023-03-29T23:47:21.750Z,98989.61
2023-03-29T23:50:13.318Z,98990.76
2023-03-29T23:53:02.271Z,98993.92
2023-03-29T23:55:51.154Z,98991.17
2023-03-29T23:58:40.090Z,98989.88
